createdAt,value
2022-11-03T00:01:15.344Z,3.80
2022-11-03T00:04:02.846Z,3.83
2022-11-03T00:06:53.317Z,4.28
2022-11-03T00:09:40.714Z,3.90
2022-11-03T00:12:28.138Z,3.80
2022-11-03T00:15:16.667Z,3.78
2022-11-03T00:18:05.622Z,4.13
2022-11-03T00:21:01.455Z,3.88
2022-11-03T00:23:49.334Z,4.00
2022-11-03T00:26:38.072Z,3.70
2022-11-03T00:29:25.852Z,3.95
2022-11-03T00:32:13.593Z,4.00
2022-11-03T00:35:02.524Z,4.00
2022-11-03T00:37:49.837Z,4.00
2022-11-03T00:40:37.116Z,3.72
2022-11-03T00:43:26.332Z,3.80
2022-11-03T00:46:14.785Z,3.70
2022-11-03T00:49:04.769Z,4.22
2022-11-03T00:51:53.845Z,4.00
2022-11-03T00:54:45.267Z,3.60
2022-11-03T00:57:33.145Z,3.65
2022-11-03T01:00:21.030Z,3.78
2022-11-03T01:03:08.861Z,3.78
2022-11-03T01:06:14.392Z,3.42
2022-11-03T01:09:03.287Z,3.90
2022-11-03T01:11:59.680Z,3.80
2022-11-03T01:14:49.865Z,3.78
2022-11-03T01:17:37.394Z,3.95
2022-11-03T01:20:25.099Z,3.88
2022-11-03T01:23:12.501Z,3.42
2022-11-03T01:26:06.191Z,3.70
2022-11-03T01:28:53.637Z,3.72
2022-11-03T01:31:41.370Z,4.20
2022-11-03T01:34:29.225Z,3.75
2022-11-03T01:37:16.780Z,3.58
2022-11-03T01:40:04.306Z,3.83
2022-11-03T01:42:53.013Z,3.72
2022-11-03T01:45:40.809Z,3.70
2022-11-03T01:48:30.019Z,4.35
2022-11-03T01:51:23.414Z,4.05
2022-11-03T01:54:16.071Z,4.15
2022-11-03T01:57:11.557Z,4.60
2022-11-03T02:00:02.513Z,3.97
2022-11-03T02:02:53.033Z,3.55
2022-11-03T02:05:42.900Z,3.80
2022-11-03T02:08:37.517Z,3.78
2022-11-03T02:11:42.644Z,3.53
2022-11-03T02:14:30.125Z,3.50
2022-11-03T02:17:22.893Z,3.85
2022-11-03T02:20:17.628Z,4.38
2022-11-03T02:23:25.879Z,3.85
2022-11-03T02:26:17.762Z,3.45
2022-11-03T02:29:05.495Z,3.50
2022-11-03T02:32:06.319Z,3.85
2022-11-03T02:35:04.544Z,4.03
2022-11-03T02:37:59.330Z,4.10
2022-11-03T02:40:53.437Z,3.58
2022-11-03T02:43:46.031Z,4.30
2022-11-03T02:46:35.937Z,3.40
2022-11-03T02:49:24.142Z,3.78
2022-11-03T02:52:38.926Z,3.28
2022-11-03T02:55:39.066Z,3.63
2022-11-03T02:58:38.229Z,3.65
2022-11-03T03:01:38.324Z,3.53
2022-11-03T03:04:34.668Z,4.10
2022-11-03T03:07:28.695Z,3.45
2022-11-03T03:10:19.777Z,3.80
2022-11-03T03:13:11.185Z,3.60
2022-11-03T03:16:12.881Z,3.70
2022-11-03T03:19:18.863Z,3.60
2022-11-03T03:22:24.593Z,3.63
2022-11-03T03:25:17.974Z,3.80
2022-11-03T03:28:13.310Z,4.20
2022-11-03T03:31:06.836Z,3.40
2022-11-03T03:34:04.389Z,3.22
2022-11-03T03:37:02.022Z,4.10
2022-11-03T03:39:56.741Z,3.40
2022-11-03T03:42:48.403Z,3.63
2022-11-03T03:45:37.437Z,4.35
2022-11-03T03:48:27.340Z,3.78
2022-11-03T03:51:21.067Z,3.72
2022-11-03T03:54:11.888Z,4.50
2022-11-03T03:57:03.994Z,4.30
2022-11-03T03:59:53.524Z,4.07
2022-11-03T04:02:41.032Z,4.90
2022-11-03T04:05:29.181Z,4.00
2022-11-03T04:08:19.198Z,3.70
2022-11-03T04:11:25.686Z,3.90
2022-11-03T04:14:30.673Z,3.55
2022-11-03T04:17:39.592Z,3.92
2022-11-03T04:20:45.528Z,3.33
2022-11-03T04:23:32.913Z,3.80
2022-11-03T04:26:24.277Z,3.95
2022-11-03T04:29:13.556Z,3.30
2022-11-03T04:32:01.483Z,3.58
2022-11-03T04:34:50.103Z,3.78
2022-11-03T04:37:42.488Z,3.20
2022-11-03T04:40:33.386Z,3.42
2022-11-03T04:43:30.570Z,3.20
2022-11-03T04:46:27.435Z,3.65
2022-11-03T04:49:23.245Z,3.58
2022-11-03T04:52:17.599Z,3.50
2022-11-03T04:55:14.953Z,3.15
2022-11-03T04:58:16.561Z,3.90
2022-11-03T05:01:10.825Z,3.40
2022-11-03T05:03:58.610Z,3.50
2022-11-03T05:06:54.717Z,3.30
2022-11-03T05:09:43.969Z,3.47
2022-11-03T05:12:32.513Z,3.58
2022-11-03T05:15:44.921Z,3.80
2022-11-03T05:18:40.850Z,3.10
2022-11-03T05:21:32.002Z,3.40
2022-11-03T05:24:26.288Z,3.42
2022-11-03T05:27:21.591Z,3.75
2022-11-03T05:30:16.164Z,3.67
2022-11-03T05:33:22.006Z,3.40
2022-11-03T05:36:20.764Z,3.20
2022-11-03T05:39:29.821Z,3.78
2022-11-03T05:42:32.472Z,3.53
2022-11-03T05:45:27.163Z,3.17
2022-11-03T05:48:26.539Z,2.92
2022-11-03T05:51:22.366Z,3.40
2022-11-03T05:54:22.954Z,3.80
2022-11-03T05:57:14.942Z,3.72
2022-11-03T06:00:05.402Z,3.38
2022-11-03T06:02:52.979Z,3.00
2022-11-03T06:05:46.457Z,4.20
2022-11-03T06:08:40.201Z,3.20
2022-11-03T06:11:37.945Z,3.50
2022-11-03T06:14:28.185Z,3.35
2022-11-03T06:17:24.037Z,3.90
2022-11-03T06:20:21.983Z,3.60
2022-11-03T06:23:13.699Z,3.28
2022-11-03T06:26:17.666Z,3.10
2022-11-03T06:29:10.101Z,3.25
2022-11-03T06:31:58.847Z,3.22
2022-11-03T06:34:49.891Z,3.22
2022-11-03T06:37:37.882Z,3.20
2022-11-03T06:40:37.110Z,3.42
2022-11-03T06:43:32.456Z,3.08
2022-11-03T06:46:23.968Z,2.75
2022-11-03T06:49:30.564Z,2.70
2022-11-03T06:52:27.950Z,3.05
2022-11-03T06:55:29.047Z,2.80
2022-11-03T06:58:26.410Z,3.00
2022-11-03T07:01:21.237Z,5.22
2022-11-03T07:04:19.927Z,5.03
2022-11-03T07:07:08.748Z,4.45
2022-11-03T07:10:01.168Z,5.97
2022-11-03T07:12:49.061Z,3.88
2022-11-03T07:15:39.975Z,3.78
2022-11-03T07:18:39.415Z,4.88
2022-11-03T07:21:36.287Z,3.70
2022-11-03T07:24:28.769Z,5.38
2022-11-03T07:27:26.859Z,4.38
2022-11-03T07:30:24.194Z,5.53
2022-11-03T07:33:21.141Z,4.47
2022-11-03T07:36:19.580Z,4.55
2022-11-03T07:39:13.486Z,5.53
2022-11-03T07:42:01.292Z,5.97
2022-11-03T07:44:50.744Z,6.35
2022-11-03T07:47:39.318Z,5.40
2022-11-03T07:50:27.307Z,6.32
2022-11-03T07:53:26.320Z,6.07
2022-11-03T07:56:21.662Z,5.82
2022-11-03T07:59:18.735Z,5.63
2022-11-03T08:02:31.722Z,4.75
2022-11-03T08:08:12.224Z,6.35
2022-11-03T08:11:02.662Z,6.25
2022-11-03T08:13:50.505Z,5.88
2022-11-03T08:16:38.182Z,5.88
2022-11-03T08:19:25.996Z,5.78
2022-11-03T08:22:13.560Z,5.65
2022-11-03T08:25:00.997Z,5.93
2022-11-03T08:27:49.786Z,6.25
2022-11-03T08:30:37.481Z,5.45
2022-11-03T08:33:24.926Z,6.10
2022-11-03T08:36:13.509Z,6.20
2022-11-03T08:39:01.068Z,6.75
2022-11-03T08:41:48.463Z,6.65
2022-11-03T08:44:37.494Z,6.55
2022-11-03T08:47:25.620Z,6.40
2022-11-03T08:50:13.179Z,6.60
2022-11-03T08:53:00.725Z,6.20
2022-11-03T08:55:48.306Z,6.65
2022-11-03T08:58:36.490Z,5.85
2022-11-03T09:01:25.655Z,6.90
2022-11-03T09:04:13.145Z,6.05
2022-11-03T09:07:00.866Z,7.70
2022-11-03T09:12:55.869Z,5.40
2022-11-03T09:15:44.417Z,6.95
2022-11-03T09:18:34.053Z,7.07
2022-11-03T09:21:21.852Z,6.53
2022-11-03T09:24:09.947Z,6.65
2022-11-03T09:27:02.136Z,6.55
2022-11-03T09:30:11.599Z,6.32
2022-11-03T09:32:58.383Z,5.78
2022-11-03T09:35:47.344Z,6.55
2022-11-03T09:38:34.869Z,6.25
2022-11-03T09:41:28.127Z,6.43
2022-11-03T09:44:34.424Z,6.10
2022-11-03T09:47:30.247Z,6.40
2022-11-03T09:50:23.502Z,5.57
2022-11-03T09:56:00.791Z,5.85
2022-11-03T09:58:53.044Z,5.40
2022-11-03T10:01:44.043Z,5.78
2022-11-03T10:04:32.661Z,5.25
2022-11-03T10:07:22.154Z,5.65
2022-11-03T10:10:19.989Z,5.65
2022-11-03T10:13:12.472Z,6.28
2022-11-03T10:16:03.208Z,6.82
2022-11-03T10:18:51.461Z,5.72
2022-11-03T10:21:40.615Z,7.35
2022-11-03T10:24:28.224Z,6.28
2022-11-03T10:27:26.444Z,5.68
2022-11-03T10:30:14.730Z,5.72
2022-11-03T10:33:03.383Z,5.50
2022-11-03T10:35:51.396Z,4.63
2022-11-03T10:38:39.220Z,6.57
2022-11-03T10:41:29.506Z,5.70
2022-11-03T10:44:20.694Z,5.15
2022-11-03T10:47:22.201Z,8.75
2022-11-03T10:50:24.836Z,6.22
2022-11-03T10:53:21.995Z,6.53
2022-11-03T10:56:10.001Z,6.00
2022-11-03T11:01:53.220Z,5.90
2022-11-03T11:04:42.051Z,6.53
2022-11-03T11:07:36.579Z,9.65
2022-11-03T11:10:26.631Z,6.82
2022-11-03T11:13:29.413Z,7.43
2022-11-03T11:16:59.139Z,12.05
2022-11-03T11:20:29.566Z,7.55
2022-11-03T11:23:52.981Z,7.35
2022-11-03T11:26:42.181Z,6.60
2022-11-03T11:29:38.881Z,5.25
2022-11-03T11:33:15.469Z,5.57
2022-11-03T11:36:23.878Z,5.25
2022-11-03T11:39:13.542Z,5.50
2022-11-03T11:42:14.265Z,5.78
2022-11-03T11:45:04.103Z,5.68
2022-11-03T11:47:52.266Z,6.28
2022-11-03T11:50:41.575Z,4.70
2022-11-03T11:53:36.948Z,7.20
2022-11-03T11:56:24.959Z,6.72
2022-11-03T11:59:24.633Z,6.00
2022-11-03T12:02:21.273Z,6.60
2022-11-03T12:05:25.431Z,5.57
2022-11-03T12:08:21.811Z,7.30
2022-11-03T12:11:13.826Z,6.55
2022-11-03T12:14:03.160Z,5.25
2022-11-03T12:16:51.257Z,5.88
2022-11-03T12:19:44.931Z,6.03
2022-11-03T12:22:43.207Z,5.13
2022-11-03T12:25:40.405Z,6.97
2022-11-03T12:28:36.363Z,5.43
2022-11-03T12:31:24.273Z,6.85
2022-11-03T12:34:11.972Z,5.43
2022-11-03T12:37:00.134Z,6.38
2022-11-03T12:39:47.878Z,4.70
2022-11-03T12:42:37.303Z,5.03
2022-11-03T12:45:24.985Z,6.35
2022-11-03T12:48:12.993Z,6.97
2022-11-03T12:51:03.571Z,5.35
2022-11-03T12:53:51.983Z,7.18
2022-11-03T12:56:39.857Z,8.07
2022-11-03T12:59:28.767Z,6.07
2022-11-03T13:02:16.796Z,7.03
2022-11-03T13:05:05.043Z,7.35
2022-11-03T13:07:53.269Z,7.22
2022-11-03T13:10:40.677Z,7.20
2022-11-03T13:13:28.154Z,6.43
2022-11-03T13:16:17.187Z,7.68
2022-11-03T13:19:04.699Z,7.18
2022-11-03T13:21:52.191Z,10.25
2022-11-03T13:24:39.764Z,6.57
2022-11-03T13:27:28.790Z,8.07
2022-11-03T13:30:16.548Z,8.15
2022-11-03T13:33:05.959Z,9.35
2022-11-03T13:35:54.083Z,6.00
2022-11-03T13:38:41.958Z,6.95
2022-11-03T13:41:29.582Z,10.75
2022-11-03T13:44:17.131Z,12.48
2022-11-03T13:47:07.709Z,9.23
2022-11-03T13:56:13.229Z,7.57
2022-11-03T14:05:21.944Z,7.28
2022-11-03T14:08:09.902Z,7.65
2022-11-03T14:10:57.613Z,8.32
2022-11-03T14:13:44.287Z,6.22
2022-11-03T14:16:31.864Z,8.55
2022-11-03T14:19:20.213Z,7.43
2022-11-03T14:22:09.357Z,9.73
2022-11-03T14:24:57.012Z,9.20
2022-11-03T14:27:44.831Z,8.65
2022-11-03T14:30:32.310Z,9.77
2022-11-03T14:33:20.166Z,9.88
2022-11-03T14:36:08.367Z,9.50
2022-11-03T14:38:57.457Z,14.32
2022-11-03T14:42:02.907Z,8.80
2022-11-03T14:47:39.721Z,11.48
2022-11-03T14:50:27.299Z,11.32
2022-11-03T14:53:14.674Z,14.80
2022-11-03T14:56:03.737Z,11.70
2022-11-03T14:58:51.108Z,9.98
2022-11-03T15:01:39.058Z,16.77
2022-11-03T15:04:27.289Z,8.82
2022-11-03T15:07:14.750Z,8.00
2022-11-03T15:10:02.688Z,10.60
2022-11-03T15:12:51.412Z,13.02
2022-11-03T15:15:40.962Z,10.95
2022-11-03T15:18:28.770Z,9.88
2022-11-03T15:21:16.857Z,10.88
2022-11-03T15:27:12.790Z,11.82
2022-11-03T15:30:01.797Z,12.88
2022-11-03T15:32:49.913Z,11.85
2022-11-03T15:35:37.683Z,11.63
2022-11-03T15:38:25.558Z,12.10
2022-11-03T15:41:19.461Z,12.15
2022-11-03T15:44:07.217Z,12.90
2022-11-03T15:46:58.827Z,12.82
2022-11-03T15:49:46.470Z,14.02
2022-11-03T15:52:34.598Z,12.50
2022-11-03T15:55:22.859Z,11.73
2022-11-03T15:58:10.430Z,10.00
2022-11-03T16:00:58.256Z,12.35
2022-11-03T16:03:47.208Z,9.98
2022-11-03T16:09:44.209Z,11.07
2022-11-03T16:12:31.840Z,13.05
2022-11-03T16:15:19.204Z,14.00
2022-11-03T16:18:07.026Z,14.05
2022-11-03T16:20:56.414Z,14.25
2022-11-03T16:23:44.498Z,15.73
2022-11-03T16:26:32.489Z,15.18
2022-11-03T16:29:20.004Z,11.73
2022-11-03T16:32:07.816Z,10.93
2022-11-03T16:34:55.328Z,12.80
2022-11-03T16:37:44.447Z,11.73
2022-11-03T16:40:32.008Z,11.75
2022-11-03T16:43:19.566Z,12.25
2022-11-03T16:46:07.308Z,10.00
2022-11-03T16:48:55.453Z,12.48
2022-11-03T16:51:43.205Z,11.07
2022-11-03T16:54:32.107Z,13.43
2022-11-03T16:57:19.725Z,13.45
2022-11-03T17:00:13.513Z,13.80
2022-11-03T17:03:00.965Z,15.15
2022-11-03T17:05:48.559Z,16.35
2022-11-03T17:08:52.434Z,14.52
2022-11-03T17:11:42.484Z,20.17
2022-11-03T17:15:12.284Z,15.98
2022-11-03T17:18:00.340Z,15.43
2022-11-03T17:20:48.058Z,17.20
2022-11-03T17:23:35.867Z,13.57
2022-11-03T17:26:42.875Z,12.93
2022-11-03T17:29:36.482Z,12.48
2022-11-03T17:32:28.438Z,16.25
2022-11-03T17:35:22.541Z,13.70
2022-11-03T17:38:15.296Z,12.23
2022-11-03T17:41:02.928Z,15.57
2022-11-03T17:43:50.391Z,14.55
2022-11-03T17:46:39.406Z,15.13
2022-11-03T17:49:27.316Z,14.15
2022-11-03T17:52:23.492Z,16.10
2022-11-03T17:55:24.316Z,15.18
2022-11-03T17:58:13.476Z,13.98
2022-11-03T18:01:02.800Z,12.98
2022-11-03T18:03:53.137Z,13.73
2022-11-03T18:06:41.902Z,12.40
2022-11-03T18:09:29.638Z,13.02
2022-11-03T18:12:38.985Z,13.00
2022-11-03T18:15:29.339Z,11.25
2022-11-03T18:18:26.190Z,11.55
2022-11-03T18:21:17.912Z,10.32
2022-11-03T18:24:13.630Z,10.23
2022-11-03T18:27:01.470Z,11.70
2022-11-03T18:29:48.918Z,10.80
2022-11-03T18:32:37.952Z,10.30
2022-11-03T18:35:33.675Z,11.05
2022-11-03T18:38:25.125Z,11.30
2022-11-03T18:41:33.932Z,13.23
2022-11-03T18:44:25.180Z,10.05
2022-11-03T18:47:13.197Z,9.73
2022-11-03T18:50:01.126Z,9.98
2022-11-03T18:52:52.014Z,9.50
2022-11-03T18:55:41.432Z,9.32
2022-11-03T18:58:29.235Z,10.10
2022-11-03T19:01:23.841Z,13.25
2022-11-03T19:04:15.025Z,10.35
2022-11-03T19:07:03.757Z,14.88
2022-11-03T19:09:51.926Z,13.52
2022-11-03T19:12:44.762Z,14.10
2022-11-03T19:15:32.304Z,13.88
2022-11-03T19:18:22.100Z,11.60
2022-11-03T19:21:15.177Z,14.88
2022-11-03T19:24:03.102Z,10.18
2022-11-03T19:26:58.589Z,13.00
2022-11-03T19:29:49.478Z,11.55
2022-11-03T19:32:43.127Z,13.35
2022-11-03T19:35:33.906Z,11.98
2022-11-03T19:38:22.240Z,12.13
2022-11-03T19:41:36.145Z,10.98
2022-11-03T19:47:18.538Z,9.88
2022-11-03T19:50:20.904Z,9.93
2022-11-03T19:53:23.486Z,9.18
2022-11-03T19:56:13.378Z,11.43
2022-11-03T19:59:07.020Z,11.73
2022-11-03T20:01:54.568Z,10.18
2022-11-03T20:04:47.361Z,11.18
2022-11-03T20:07:35.231Z,9.57
2022-11-03T20:10:23.147Z,11.00
2022-11-03T20:13:15.000Z,10.15
2022-11-03T20:16:02.932Z,11.30
2022-11-03T20:18:52.373Z,15.90
2022-11-03T20:21:42.629Z,8.80
2022-11-03T20:24:30.460Z,11.15
2022-11-03T20:27:24.265Z,11.10
2022-11-03T20:30:16.454Z,9.70
2022-11-03T20:33:04.270Z,8.93
2022-11-03T20:35:55.910Z,10.82
2022-11-03T20:38:48.584Z,8.88
2022-11-03T20:41:36.434Z,9.88
2022-11-03T20:44:24.497Z,9.52
2022-11-03T20:47:14.597Z,13.25
2022-11-03T20:50:04.415Z,10.05
2022-11-03T20:52:52.449Z,11.27
2022-11-03T20:55:41.677Z,12.95
2022-11-03T20:58:29.621Z,9.88
2022-11-03T21:01:25.132Z,13.40
2022-11-03T21:04:17.079Z,10.43
2022-11-03T21:07:05.364Z,21.08
2022-11-03T21:09:53.274Z,10.25
2022-11-03T21:12:45.571Z,10.93
2022-11-03T21:16:18.184Z,11.32
2022-11-03T21:19:15.486Z,12.82
2022-11-03T21:22:03.507Z,11.77
2022-11-03T21:24:51.467Z,12.38
2022-11-03T21:27:41.727Z,13.55
2022-11-03T21:30:31.184Z,11.65
2022-11-03T21:33:19.400Z,11.60
2022-11-03T21:36:07.662Z,12.32
2022-11-03T21:38:54.986Z,11.02
2022-11-03T21:42:00.339Z,10.93
2022-11-03T21:44:47.924Z,10.93
2022-11-03T21:47:36.743Z,10.48
2022-11-03T21:50:23.351Z,11.10
2022-11-03T21:53:12.550Z,10.80
2022-11-03T21:56:00.833Z,10.18
2022-11-03T21:58:48.375Z,10.98
2022-11-03T22:01:35.758Z,10.20
2022-11-03T22:04:25.355Z,10.68
2022-11-03T22:07:13.130Z,9.55
2022-11-03T22:10:00.879Z,10.15
2022-11-03T22:12:48.500Z,9.60
2022-11-03T22:15:53.848Z,10.38
2022-11-03T22:18:41.657Z,9.98
2022-11-03T22:21:47.849Z,10.63
2022-11-03T22:24:53.429Z,11.63
2022-11-03T22:27:40.784Z,9.82
2022-11-03T22:30:46.133Z,10.35
2022-11-03T22:33:54.775Z,10.07
2022-11-03T22:36:43.042Z,10.43
2022-11-03T22:39:48.461Z,10.43
2022-11-03T22:42:53.908Z,9.95
2022-11-03T22:45:52.368Z,9.20
2022-11-03T22:48:40.354Z,9.75
2022-11-03T22:51:28.032Z,8.77
2022-11-03T22:54:16.923Z,10.15
2022-11-03T22:57:04.563Z,9.50
2022-11-03T22:59:52.321Z,10.00
2022-11-03T23:02:39.929Z,9.32
2022-11-03T23:05:27.353Z,11.07
2022-11-03T23:08:14.995Z,9.43
2022-11-03T23:11:16.116Z,10.07
2022-11-03T23:14:06.293Z,9.30
2022-11-03T23:16:53.948Z,9.95
2022-11-03T23:20:01.612Z,9.90
2022-11-03T23:22:49.240Z,9.10
2022-11-03T23:25:36.182Z,9.30
2022-11-03T23:28:25.769Z,8.57
2022-11-03T23:31:14.033Z,8.90
2022-11-03T23:34:01.670Z,10.68
2022-11-03T23:36:49.387Z,10.15
2022-11-03T23:39:37.284Z,10.73
2022-11-03T23:42:24.502Z,9.30
2022-11-03T23:45:30.965Z,12.43
2022-11-03T23:48:36.204Z,9.88
2022-11-03T23:51:26.422Z,9.88
2022-11-03T23:54:14.953Z,9.48
2022-11-03T23:57:20.292Z,8.50
